シュトゥットガルト の空港の天気 - METARとTAF

シュトゥットガルト空港 ( EDDS / STR ) - ドイツ シュトゥットガルト
飛行場実況気象(Metar)
観測時間11/19 11:50 CET (11/19 10:50 UTC)
風向・風速不定 1m/s
視程10km以上
天気現象
少しの雲 雲底高度 700m
全天の8割程度の雲 雲底高度 1070m
気温6℃
湿度76%
気圧1016hPa
METAREDDS 191050Z VRB01KT 9999 FEW023 BKN035 06/02 Q1016 NOSIG
過去の天気等 Google飛行場航空写真 Wunderground天気予報

過去48時間のMETAR

飛行場予報(TAF)
発表時間: 11/19 06:00 CET (11/19 05:00 UTC)
予報対象時間: 19日7時 CET ~ 20日7時 CET
風向・風速不定 2m/s
視程10km以上
全天の8割程度の雲 雲底高度 760m
20日2時 CET ~ 20日7時 CET に 確率 30% で一時的に
視程3000m
天気現象もや
TAF EDDS 190500Z 1906/2006 VRB03KT 9999 BKN025
PROB30 TEMPO 2001/2006 3000 BR